Time;durP1;ratioP1;P1;durP2;ratioP2;P2;SDS_P1;SDS_P2;PMS_P1;PMS_P2;Temp;Humidity;BMP_temperature;BMP_pressure;BME280_temperature;BME280_humidity;BME280_pressure;Samples;Min_cycle;Max_cycle;Signal;HPM_P1;HPM_P2
2022/03/02 00:01:51;;;;;;;13.23;6.43;;;4.40;99.90;;;;;;5017593;28;20216;-76
2022/03/02 00:04:17;;;;;;;9.43;5.83;;;4.40;99.90;;;;;;5017936;28;20173;-75
2022/03/02 00:06:43;;;;;;;9.37;5.87;;;4.30;99.90;;;;;;5016272;28;20643;-76
2022/03/02 00:09:09;;;;;;;9.77;5.90;;;4.30;99.90;;;;;;5032872;28;20176;-76
2022/03/02 00:11:34;;;;;;;10.57;6.23;;;4.30;99.90;;;;;;5016511;28;20202;-75
2022/03/02 00:14:00;;;;;;;10.53;5.73;;;4.20;99.90;;;;;;5034317;28;20214;-76
2022/03/02 00:16:28;;;;;;;8.13;5.47;;;4.20;99.90;;;;;;5033611;28;20172;-76
2022/03/02 00:18:54;;;;;;;8.27;5.87;;;4.10;99.90;;;;;;5033245;28;20253;-76
2022/03/02 00:21:20;;;;;;;8.23;5.67;;;4.10;99.90;;;;;;5033125;28;20189;-76
2022/03/02 00:23:46;;;;;;;13.40;6.37;;;4.00;99.90;;;;;;5015770;28;20179;-75
2022/03/02 00:26:12;;;;;;;9.60;6.33;;;4.00;99.90;;;;;;5033153;28;20252;-76
2022/03/02 00:28:37;;;;;;;11.57;6.37;;;4.00;99.90;;;;;;5033302;28;20215;-76
2022/03/02 00:31:03;;;;;;;11.17;6.97;;;3.90;99.90;;;;;;5033056;28;20215;-76
2022/03/02 00:33:29;;;;;;;8.50;5.87;;;3.90;99.90;;;;;;5033172;28;20539;-76
2022/03/02 00:35:54;;;;;;;9.47;6.20;;;3.80;99.90;;;;;;5015368;28;20195;-76
2022/03/02 00:38:20;;;;;;;9.07;6.67;;;3.80;99.90;;;;;;5015390;28;20168;-76
2022/03/02 00:40:45;;;;;;;9.07;6.53;;;3.70;99.90;;;;;;5032957;28;20241;-76
2022/03/02 00:43:11;;;;;;;8.70;5.90;;;3.60;99.90;;;;;;5033143;28;20184;-75
2022/03/02 00:45:37;;;;;;;10.27;6.27;;;3.60;99.90;;;;;;5033801;28;20175;-76
2022/03/02 00:48:04;;;;;;;11.93;6.47;;;3.50;99.90;;;;;;5032940;28;20168;-76
2022/03/02 00:50:31;;;;;;;10.60;6.20;;;3.50;99.90;;;;;;5033356;28;20661;-76
2022/03/02 00:52:57;;;;;;;9.67;6.40;;;3.50;99.90;;;;;;5033021;28;20594;-76
2022/03/02 00:55:23;;;;;;;8.83;6.63;;;3.40;99.90;;;;;;5015193;28;20195;-76
2022/03/02 00:57:49;;;;;;;9.43;6.23;;;3.30;99.90;;;;;;5032935;28;20259;-76
2022/03/02 01:00:15;;;;;;;12.10;6.43;;;3.30;99.90;;;;;;5015128;28;20636;-76
2022/03/02 01:02:40;;;;;;;10.37;6.33;;;3.20;99.90;;;;;;5034500;28;20222;-76
2022/03/02 01:05:07;;;;;;;12.73;6.63;;;3.20;99.90;;;;;;5036917;28;20184;-76
2022/03/02 01:07:34;;;;;;;9.70;5.73;;;3.20;99.90;;;;;;5035688;28;20172;-76
2022/03/02 01:10:00;;;;;;;11.83;5.77;;;3.10;99.90;;;;;;5019271;28;20546;-76
2022/03/02 01:12:27;;;;;;;10.37;6.57;;;3.10;99.90;;;;;;5036859;28;20176;-76
2022/03/02 01:14:53;;;;;;;9.43;5.57;;;3.10;99.90;;;;;;5036526;28;20196;-77
2022/03/02 01:17:20;;;;;;;9.27;6.30;;;3.00;99.90;;;;;;5036546;28;20670;-75
2022/03/02 01:19:47;;;;;;;9.20;5.67;;;3.00;99.90;;;;;;5036598;28;20161;-76
2022/03/02 01:22:12;;;;;;;10.20;6.20;;;2.90;99.90;;;;;;5036854;28;20697;-76
2022/03/02 01:24:38;;;;;;;11.60;6.13;;;2.90;99.90;;;;;;5018711;28;20188;-76
2022/03/02 01:27:04;;;;;;;9.27;6.00;;;2.80;99.90;;;;;;5036360;28;20176;-76
2022/03/02 01:29:30;;;;;;;8.30;5.77;;;2.80;99.90;;;;;;5018713;28;20250;-75
2022/03/02 01:31:57;;;;;;;9.67;6.27;;;2.80;99.90;;;;;;5036246;28;20208;-76
2022/03/02 01:34:23;;;;;;;9.73;6.33;;;2.70;99.90;;;;;;5036284;28;20192;-76
2022/03/02 01:36:48;;;;;;;10.43;6.20;;;2.70;99.90;;;;;;5036199;28;20176;-76
2022/03/02 01:39:14;;;;;;;9.33;6.13;;;2.70;99.90;;;;;;5036168;28;20172;-75
2022/03/02 01:41:40;;;;;;;12.10;6.27;;;2.70;99.90;;;;;;5036166;28;20187;-76
2022/03/02 01:44:05;;;;;;;10.57;6.13;;;2.70;99.90;;;;;;5036365;28;20180;-76
2022/03/02 01:46:31;;;;;;;9.30;6.30;;;2.60;99.90;;;;;;5018332;28;20177;-76
2022/03/02 01:48:57;;;;;;;10.50;5.93;;;2.60;99.90;;;;;;5036036;28;20223;-76
2022/03/02 01:51:23;;;;;;;8.87;5.70;;;2.60;99.90;;;;;;5038579;28;20246;-76
2022/03/02 01:53:49;;;;;;;10.57;6.37;;;2.50;99.90;;;;;;5036281;28;20606;-75
2022/03/02 01:56:16;;;;;;;8.07;5.70;;;2.60;99.90;;;;;;5036174;28;20234;-76
2022/03/02 01:58:44;;;;;;;9.30;6.07;;;2.60;99.90;;;;;;5035761;28;20173;-76
2022/03/02 02:01:11;;;;;;;7.93;5.77;;;2.50;99.90;;;;;;5035955;28;20184;-76
2022/03/02 02:03:38;;;;;;;10.10;6.00;;;2.50;99.90;;;;;;5017935;28;20175;-76
2022/03/02 02:06:04;;;;;;;11.57;6.23;;;2.50;99.90;;;;;;5035559;28;20172;-76
2022/03/02 02:08:30;;;;;;;7.30;5.50;;;2.50;99.90;;;;;;5035643;28;20597;-74
2022/03/02 02:10:57;;;;;;;10.03;6.60;;;2.50;99.90;;;;;;5035557;28;20283;-75
2022/03/02 02:13:24;;;;;;;8.83;6.00;;;2.50;99.90;;;;;;5035270;28;20582;-76
2022/03/02 02:15:49;;;;;;;9.60;6.13;;;2.40;99.90;;;;;;5034980;28;20665;-76
2022/03/02 02:18:15;;;;;;;9.60;6.27;;;2.40;99.90;;;;;;5035496;28;20176;-76
2022/03/02 02:20:41;;;;;;;14.13;6.63;;;2.40;99.90;;;;;;5035676;28;20336;-76
2022/03/02 02:23:07;;;;;;;10.10;6.30;;;2.30;99.90;;;;;;5035621;28;20188;-76
2022/03/02 02:25:33;;;;;;;8.33;5.80;;;2.30;99.90;;;;;;5035568;28;20172;-76
2022/03/02 02:28:00;;;;;;;7.77;5.60;;;2.40;99.90;;;;;;5018363;28;20180;-76
2022/03/02 02:30:28;;;;;;;9.27;5.93;;;2.30;99.90;;;;;;5035275;28;20212;-76
2022/03/02 02:32:53;;;;;;;12.83;6.20;;;2.40;99.90;;;;;;5035470;28;20168;-76
2022/03/02 02:35:19;;;;;;;10.27;6.20;;;2.30;99.90;;;;;;5035281;28;20204;-76
2022/03/02 02:37:45;;;;;;;7.90;5.30;;;2.30;99.90;;;;;;5035084;28;20223;-77
2022/03/02 02:40:16;;;;;;;7.30;4.90;;;2.30;99.90;;;;;;5017243;28;20200;-76
2022/03/02 02:42:45;;;;;;;8.63;5.43;;;2.30;99.90;;;;;;5017390;28;20173;-76
2022/03/02 02:45:17;;;;;;;7.97;5.17;;;2.30;99.90;;;;;;5017256;28;20184;-76
2022/03/02 02:47:44;;;;;;;7.77;5.20;;;2.30;99.90;;;;;;5017559;28;20176;-76
2022/03/02 02:50:24;;;;;;;10.20;5.90;;;2.30;99.90;;;;;;5017294;28;20210;-76
2022/03/02 02:52:51;;;;;;;9.87;5.30;;;2.30;99.90;;;;;;5017176;28;20199;-76
2022/03/02 02:55:18;;;;;;;7.20;5.17;;;2.30;99.90;;;;;;5034797;28;20204;-76
2022/03/02 02:57:44;;;;;;;8.33;5.87;;;2.20;99.90;;;;;;5034773;28;20256;-76
2022/03/02 03:00:15;;;;;;;9.97;6.43;;;2.20;99.90;;;;;;5034697;28;20619;-75
2022/03/02 03:02:41;;;;;;;7.53;5.27;;;2.20;99.90;;;;;;5034669;28;20537;-76
2022/03/02 03:05:11;;;;;;;12.03;5.90;;;2.20;99.90;;;;;;5017019;28;20189;-76
2022/03/02 03:07:38;;;;;;;9.57;6.00;;;2.20;99.90;;;;;;5035069;28;20202;-75
2022/03/02 03:10:05;;;;;;;11.37;6.07;;;2.20;99.90;;;;;;5034953;28;20199;-76
2022/03/02 03:12:31;;;;;;;9.23;5.23;;;2.20;99.90;;;;;;5017716;28;20180;-75
2022/03/02 03:14:57;;;;;;;9.63;6.13;;;2.10;99.90;;;;;;5034743;28;20192;-76
2022/03/02 03:17:22;;;;;;;8.60;6.03;;;2.10;99.90;;;;;;5016619;28;20210;-76
2022/03/02 03:19:48;;;;;;;9.23;5.23;;;2.10;99.90;;;;;;5034396;28;20204;-76
2022/03/02 03:22:13;;;;;;;14.77;5.33;;;2.10;99.90;;;;;;5016716;28;20581;-74
2022/03/02 03:24:39;;;;;;;11.43;5.87;;;2.10;99.90;;;;;;5034379;28;20176;-76
2022/03/02 03:27:05;;;;;;;8.93;4.87;;;2.10;99.90;;;;;;5035988;28;20184;-75
2022/03/02 03:29:30;;;;;;;8.33;5.37;;;2.10;99.90;;;;;;5017388;28;20186;-75
2022/03/02 03:31:56;;;;;;;8.40;5.27;;;2.00;99.90;;;;;;5016622;28;20678;-76
2022/03/02 03:34:21;;;;;;;7.70;5.07;;;2.00;99.90;;;;;;5034016;28;20199;-76
2022/03/02 03:36:47;;;;;;;8.03;5.20;;;2.10;99.90;;;;;;5016207;28;20226;-76
2022/03/02 03:39:12;;;;;;;9.20;5.50;;;2.10;99.90;;;;;;5018055;28;20547;-73
2022/03/02 03:41:38;;;;;;;9.33;5.17;;;2.10;99.90;;;;;;5033853;28;20246;-76
2022/03/02 03:44:04;;;;;;;6.67;5.27;;;2.10;99.90;;;;;;5033824;28;20666;-75
2022/03/02 03:46:29;;;;;;;10.97;5.70;;;2.10;99.90;;;;;;5033850;28;20651;-76
2022/03/02 03:48:55;;;;;;;8.13;4.80;;;2.10;99.90;;;;;;5034065;28;20177;-76
2022/03/02 03:51:20;;;;;;;9.33;5.10;;;2.10;99.90;;;;;;5033545;28;20200;-76
2022/03/02 03:53:46;;;;;;;8.67;5.53;;;2.10;99.90;;;;;;5016000;28;20674;-75
2022/03/02 03:56:12;;;;;;;10.03;5.03;;;2.10;99.90;;;;;;5033732;28;20200;-76
2022/03/02 03:58:37;;;;;;;8.10;5.83;;;2.00;99.90;;;;;;5033953;28;20175;-76
2022/03/02 04:01:03;;;;;;;8.60;5.87;;;2.00;99.90;;;;;;5033494;28;20192;-75
2022/03/02 04:03:29;;;;;;;10.17;5.73;;;2.00;99.90;;;;;;5033405;28;20176;-76
2022/03/02 04:05:54;;;;;;;8.10;5.27;;;2.00;99.90;;;;;;5034032;28;20259;-76
2022/03/02 04:08:22;;;;;;;11.10;5.93;;;2.00;99.90;;;;;;5033397;28;20168;-76
2022/03/02 04:10:49;;;;;;;8.70;6.10;;;2.00;99.90;;;;;;5033382;28;20192;-76
2022/03/02 04:13:15;;;;;;;11.33;6.50;;;2.00;99.90;;;;;;5015733;28;20183;-76
2022/03/02 04:15:40;;;;;;;8.73;5.53;;;2.00;99.90;;;;;;5033648;28;20513;-74
2022/03/02 04:18:07;;;;;;;11.83;5.53;;;2.00;99.90;;;;;;5033401;28;20179;-76
2022/03/02 04:20:34;;;;;;;10.57;5.93;;;2.00;99.90;;;;;;5033660;28;20188;-76
2022/03/02 04:22:59;;;;;;;9.87;6.30;;;2.00;99.90;;;;;;5033456;28;20179;-76
2022/03/02 04:25:25;;;;;;;7.73;5.67;;;2.00;99.90;;;;;;5033273;28;20252;-76
2022/03/02 04:27:50;;;;;;;8.97;5.80;;;2.00;99.90;;;;;;5033150;28;20227;-76
2022/03/02 04:30:16;;;;;;;8.23;5.57;;;2.00;99.90;;;;;;5015147;28;20200;-76
2022/03/02 04:32:43;;;;;;;8.20;5.33;;;2.00;99.90;;;;;;5035158;28;20641;-76
2022/03/02 04:35:10;;;;;;;8.17;5.53;;;1.90;99.90;;;;;;5033046;28;20202;-76
2022/03/02 04:37:37;;;;;;;10.63;5.13;;;1.90;99.90;;;;;;5014840;28;20168;-76
2022/03/02 04:40:08;;;;;;;6.50;4.60;;;1.90;99.90;;;;;;5015321;28;20570;-76
2022/03/02 04:42:34;;;;;;;6.73;4.87;;;1.90;99.90;;;;;;5032975;28;20681;-76
2022/03/02 04:44:59;;;;;;;7.13;4.97;;;1.90;99.90;;;;;;5032958;28;20183;-76
2022/03/02 04:47:25;;;;;;;7.10;4.40;;;1.80;99.90;;;;;;5015378;28;20172;-76
2022/03/02 04:49:51;;;;;;;7.23;5.17;;;1.80;99.90;;;;;;5032838;28;20678;-76
2022/03/02 04:52:17;;;;;;;8.10;5.20;;;1.80;99.90;;;;;;5033125;28;20172;-76
2022/03/02 04:57:27;;;;;;;8.23;4.80;;;1.70;99.90;;;;;;5033149;28;20155;-76
2022/03/02 04:59:53;;;;;;;8.27;5.43;;;1.70;99.90;;;;;;5014802;28;20168;-76
2022/03/02 05:02:18;;;;;;;8.73;5.10;;;1.60;99.90;;;;;;5032676;28;20303;-75
2022/03/02 05:04:44;;;;;;;7.37;5.27;;;1.60;99.90;;;;;;5032846;28;20176;-76
2022/03/02 05:07:10;;;;;;;7.70;4.87;;;1.60;99.90;;;;;;5032920;28;20646;-76
2022/03/02 05:09:35;;;;;;;10.77;5.03;;;1.50;99.90;;;;;;5032615;28;20263;-75
2022/03/02 05:12:02;;;;;;;6.53;4.73;;;1.50;99.90;;;;;;5032527;28;20265;-77
2022/03/02 05:14:29;;;;;;;8.03;4.83;;;1.50;99.90;;;;;;5032632;28;20193;-77
2022/03/02 05:16:54;;;;;;;8.80;4.93;;;1.50;99.90;;;;;;5032850;28;20540;-76
2022/03/02 05:19:20;;;;;;;8.43;5.13;;;1.40;99.90;;;;;;5015082;28;20180;-76
2022/03/02 05:21:45;;;;;;;6.80;4.60;;;1.40;99.90;;;;;;5032631;28;20193;-76
2022/03/02 05:24:11;;;;;;;13.70;5.37;;;1.30;99.90;;;;;;5032675;28;20175;-76
2022/03/02 05:26:37;;;;;;;8.87;5.43;;;1.30;99.90;;;;;;5034879;28;20258;-76
2022/03/02 05:29:02;;;;;;;6.93;4.87;;;1.30;99.90;;;;;;5032996;28;20176;-76
2022/03/02 05:31:28;;;;;;;6.53;4.83;;;1.30;99.90;;;;;;5032351;28;20211;-75
2022/03/02 05:33:54;;;;;;;6.83;4.33;;;1.30;99.90;;;;;;5014721;28;20698;-76
2022/03/02 05:36:20;;;;;;;9.47;4.50;;;1.20;99.90;;;;;;5032774;28;20180;-76
2022/03/02 05:38:45;;;;;;;6.47;4.30;;;1.20;99.90;;;;;;5032891;28;20745;-76
2022/03/02 05:41:11;;;;;;;7.43;4.50;;;1.20;99.90;;;;;;5014765;28;20200;-76
2022/03/02 05:43:36;;;;;;;6.53;4.37;;;1.20;99.90;;;;;;5032764;28;20208;-76
2022/03/02 05:46:02;;;;;;;8.60;4.73;;;1.10;99.90;;;;;;5032430;28;20169;-76
2022/03/02 05:48:28;;;;;;;8.27;4.70;;;1.10;99.90;;;;;;5014886;28;20580;-76
2022/03/02 05:50:53;;;;;;;9.63;4.67;;;1.10;99.90;;;;;;5035607;28;20282;-76
2022/03/02 05:53:19;;;;;;;8.13;5.00;;;1.00;99.90;;;;;;5036104;28;20176;-76
2022/03/02 05:55:45;;;;;;;7.87;4.90;;;1.00;99.90;;;;;;5035842;28;20173;-76
2022/03/02 05:58:10;;;;;;;8.07;5.17;;;1.00;99.90;;;;;;5035975;28;20553;-76
2022/03/02 06:00:36;;;;;;;10.67;5.00;;;1.00;99.90;;;;;;5018100;28;20279;-76
2022/03/02 06:03:02;;;;;;;6.37;4.60;;;0.90;99.90;;;;;;5018094;28;20187;-76
2022/03/02 06:05:28;;;;;;;8.13;4.57;;;0.90;99.90;;;;;;5037788;28;20172;-77
2022/03/02 06:07:54;;;;;;;6.97;4.80;;;0.90;99.90;;;;;;5039870;28;20195;-78
2022/03/02 06:10:20;;;;;;;8.73;4.87;;;0.80;99.90;;;;;;5039873;28;20206;-78
2022/03/02 06:12:46;;;;;;;6.40;3.93;;;0.80;99.90;;;;;;5017318;28;20184;-77
2022/03/02 06:15:12;;;;;;;8.20;5.07;;;0.80;99.90;;;;;;5035645;28;20204;-77
2022/03/02 06:17:39;;;;;;;6.67;4.70;;;0.80;99.90;;;;;;5037163;28;20183;-77
2022/03/02 06:20:05;;;;;;;8.77;5.03;;;0.70;99.90;;;;;;5019306;28;20219;-77
2022/03/02 06:22:31;;;;;;;8.33;5.20;;;0.70;99.90;;;;;;5036219;28;20172;-77
2022/03/02 06:24:58;;;;;;;8.03;5.57;;;0.70;99.90;;;;;;5036103;28;20179;-77
2022/03/02 06:27:23;;;;;;;7.93;5.17;;;0.70;99.90;;;;;;5036472;28;20169;-77
2022/03/02 06:29:49;;;;;;;7.93;5.50;;;0.60;99.90;;;;;;5035437;28;20183;-76
2022/03/02 06:32:15;;;;;;;10.90;5.77;;;0.60;99.90;;;;;;5035358;28;20186;-76
2022/03/02 06:34:41;;;;;;;8.27;5.10;;;0.60;99.90;;;;;;5035088;28;20227;-77
2022/03/02 06:37:07;;;;;;;9.13;5.73;;;0.60;99.90;;;;;;5017844;28;20183;-77
2022/03/02 06:39:33;;;;;;;8.73;6.03;;;0.50;99.90;;;;;;5035464;28;20168;-77
2022/03/02 06:42:21;;;;;;;10.90;6.27;;;0.50;99.90;;;;;;5033402;28;20211;-77
2022/03/02 06:44:50;;;;;;;7.67;5.27;;;0.60;99.90;;;;;;5035475;28;20176;-77
2022/03/02 06:47:19;;;;;;;9.53;5.63;;;0.60;99.90;;;;;;5034177;28;20191;-78
2022/03/02 06:50:06;;;;;;;14.67;6.57;;;0.50;99.90;;;;;;5019356;28;20315;-78
2022/03/02 06:52:43;;;;;;;11.87;5.73;;;0.50;99.90;;;;;;5039887;28;20569;-78
2022/03/02 06:55:17;;;;;;;8.57;5.53;;;0.60;99.90;;;;;;5040577;28;20218;-76
2022/03/02 06:57:56;;;;;;;9.60;5.40;;;0.60;99.90;;;;;;5023322;28;20170;-77
2022/03/02 07:00:23;;;;;;;8.00;5.10;;;0.60;99.90;;;;;;5022884;28;20677;-77
2022/03/02 07:03:06;;;;;;;10.97;5.50;;;0.60;99.90;;;;;;5036190;28;20179;-76
2022/03/02 07:05:32;;;;;;;8.80;5.17;;;0.60;99.90;;;;;;5034272;28;20185;-77
2022/03/02 07:08:00;;;;;;;7.70;4.83;;;0.60;99.90;;;;;;5035668;28;20682;-77
2022/03/02 07:10:27;;;;;;;7.43;4.70;;;0.60;99.90;;;;;;5035993;28;20192;-77
2022/03/02 07:12:52;;;;;;;8.60;5.50;;;0.60;99.90;;;;;;5037920;28;20230;-77
2022/03/02 07:15:18;;;;;;;10.13;5.47;;;0.60;99.90;;;;;;5022586;28;20203;-77
2022/03/02 07:17:44;;;;;;;10.53;6.27;;;0.60;99.90;;;;;;5035530;28;20587;-77
2022/03/02 07:20:11;;;;;;;10.20;5.77;;;0.60;99.90;;;;;;5035269;28;20200;-77
2022/03/02 07:22:48;;;;;;;11.23;5.10;;;0.60;99.90;;;;;;5017360;28;20234;-77
2022/03/02 07:25:19;;;;;;;11.43;5.60;;;0.70;99.90;;;;;;5017270;28;20221;-77
2022/03/02 07:27:45;;;;;;;9.30;4.93;;;0.70;99.90;;;;;;5035192;28;20160;-77
2022/03/02 07:30:11;;;;;;;9.70;5.50;;;0.70;99.90;;;;;;5034849;28;20192;-77
2022/03/02 07:32:41;;;;;;;7.23;4.93;;;0.70;99.90;;;;;;5017283;28;20199;-77
2022/03/02 07:35:08;;;;;;;9.90;5.97;;;0.70;99.90;;;;;;5034924;28;20219;-77
2022/03/02 07:37:34;;;;;;;10.83;5.93;;;0.70;99.90;;;;;;5034703;28;20172;-77
2022/03/02 07:40:00;;;;;;;8.60;5.23;;;0.70;99.90;;;;;;5034489;28;20259;-77
2022/03/02 07:42:26;;;;;;;8.87;5.20;;;0.70;99.90;;;;;;5035146;28;20270;-77
2022/03/02 07:44:54;;;;;;;8.50;5.33;;;0.80;99.90;;;;;;5016886;28;20212;-77
2022/03/02 07:47:20;;;;;;;9.97;5.60;;;0.70;99.90;;;;;;5035040;28;20539;-77
2022/03/02 07:49:46;;;;;;;8.97;5.70;;;0.80;99.90;;;;;;5034744;28;20230;-77
2022/03/02 07:52:14;;;;;;;7.07;5.17;;;0.80;99.90;;;;;;5016964;28;20196;-77
2022/03/02 07:54:41;;;;;;;9.13;6.00;;;0.80;99.90;;;;;;5016925;28;20633;-77
2022/03/02 07:57:08;;;;;;;10.73;6.07;;;0.90;99.90;;;;;;5017448;28;20259;-77
2022/03/02 07:59:36;;;;;;;9.10;5.60;;;0.90;99.90;;;;;;5017780;28;20172;-77
2022/03/02 08:02:04;;;;;;;9.33;5.90;;;1.00;99.90;;;;;;5016553;28;20222;-77
2022/03/02 08:04:31;;;;;;;7.97;5.27;;;1.10;99.90;;;;;;5016517;28;20546;-77
2022/03/02 08:06:56;;;;;;;13.23;6.63;;;1.10;99.90;;;;;;5034835;28;20305;-77
2022/03/02 08:09:22;;;;;;;10.63;6.63;;;1.20;99.90;;;;;;5034596;28;20214;-77
2022/03/02 08:11:48;;;;;;;12.97;6.70;;;1.30;99.90;;;;;;5016196;28;20879;-77
2022/03/02 08:14:13;;;;;;;13.33;6.53;;;1.40;99.90;;;;;;5034707;28;20196;-77
2022/03/02 08:16:40;;;;;;;10.13;6.40;;;1.40;99.90;;;;;;5034266;28;20172;-77
2022/03/02 08:19:07;;;;;;;10.90;7.20;;;1.60;99.90;;;;;;5034472;28;20562;-77
2022/03/02 08:21:35;;;;;;;10.83;7.30;;;1.70;99.90;;;;;;5016347;28;20250;-77
2022/03/02 08:24:06;;;;;;;10.90;7.37;;;1.80;99.90;;;;;;5034065;28;20176;-77
2022/03/02 08:26:33;;;;;;;11.90;6.80;;;2.00;99.90;;;;;;5034160;28;20181;-77
2022/03/02 08:29:04;;;;;;;12.33;7.63;;;2.10;1.00;;;;;;5033779;28;20184;-77
2022/03/02 08:31:31;;;;;;;12.10;7.03;;;2.20;1.00;;;;;;5016009;28;20226;-77
2022/03/02 08:33:59;;;;;;;9.73;6.43;;;2.40;1.00;;;;;;5034441;28;20199;-76
2022/03/02 08:36:28;;;;;;;11.37;6.77;;;2.60;1.00;;;;;;5034336;28;20176;-77
2022/03/02 08:38:54;;;;;;;9.27;6.43;;;2.70;1.00;;;;;;5034165;28;20183;-77
2022/03/02 08:41:20;;;;;;;10.67;6.30;;;2.90;99.90;;;;;;5034180;28;20188;-77
2022/03/02 08:43:47;;;;;;;12.87;6.10;;;3.00;99.90;;;;;;5034958;28;20709;-76
2022/03/02 08:46:14;;;;;;;10.33;6.13;;;3.20;1.00;;;;;;5034776;28;20549;-77
2022/03/02 08:48:40;;;;;;;11.33;6.07;;;3.30;98.10;;;;;;5017177;28;20192;-77
2022/03/02 08:51:06;;;;;;;13.77;6.47;;;3.50;28.20;;;;;;5016775;28;20203;-77
2022/03/02 08:53:32;;;;;;;10.77;6.50;;;3.70;1.00;;;;;;5034869;28;20657;-76
2022/03/02 08:56:02;;;;;;;10.20;6.73;;;3.80;1.00;;;;;;5017271;28;20705;-77
2022/03/02 08:58:28;;;;;;;8.83;6.03;;;3.90;99.90;;;;;;5035219;28;20169;-77
2022/03/02 09:00:54;;;;;;;11.60;6.93;;;4.10;99.90;;;;;;5035727;28;20219;-77
2022/03/02 09:03:21;;;;;;;9.13;5.53;;;4.30;99.90;;;;;;5036675;28;20247;-77
2022/03/02 09:05:49;;;;;;;10.60;5.87;;;4.40;99.90;;;;;;5035230;28;20245;-76
2022/03/02 09:08:15;;;;;;;6.43;5.57;;;4.60;99.90;;;;;;5035204;28;20267;-77
2022/03/02 09:10:42;;;;;;;9.47;5.93;;;4.70;99.90;;;;;;5035103;28;20613;-77
2022/03/02 09:13:09;;;;;;;11.00;5.80;;;4.80;99.90;;;;;;5034920;28;20202;-77
2022/03/02 09:15:37;;;;;;;9.57;5.57;;;4.90;36.30;;;;;;5035062;28;20275;-76
2022/03/02 09:18:03;;;;;;;6.83;5.37;;;5.00;1.00;;;;;;5017092;28;20200;-77
2022/03/02 09:20:30;;;;;;;11.57;5.77;;;5.20;1.00;;;;;;5017455;28;20277;-77
2022/03/02 09:22:56;;;;;;;10.37;6.30;;;5.30;1.00;;;;;;5017498;28;20180;-77
2022/03/02 09:25:24;;;;;;;8.93;5.60;;;5.40;1.00;;;;;;5037281;28;20549;-77
2022/03/02 09:27:51;;;;;;;7.63;5.23;;;5.70;99.90;;;;;;5037158;28;20180;-77
2022/03/02 09:30:17;;;;;;;7.90;5.50;;;5.90;99.90;;;;;;5019666;28;20223;-77
2022/03/02 09:32:44;;;;;;;9.17;6.50;;;6.20;99.90;;;;;;5037866;28;20169;-77
2022/03/02 09:35:13;;;;;;;7.20;5.57;;;6.20;99.90;;;;;;5037998;28;20283;-77
2022/03/02 09:37:42;;;;;;;8.43;5.30;;;6.30;99.90;;;;;;5037453;28;20160;-75
2022/03/02 09:40:19;;;;;;;8.27;5.47;;;6.40;99.90;;;;;;5037721;28;20172;-77
2022/03/02 09:42:55;;;;;;;8.93;5.87;;;6.60;99.90;;;;;;5038308;28;20153;-77
2022/03/02 09:45:23;;;;;;;9.73;5.53;;;6.70;99.90;;;;;;5038571;28;20163;-77
2022/03/02 09:48:05;;;;;;;8.77;5.73;;;6.70;99.90;;;;;;5038300;28;20172;-77
2022/03/02 09:50:33;;;;;;;8.47;6.43;;;6.70;99.90;;;;;;5038791;28;20207;-77
2022/03/02 09:53:08;;;;;;;9.07;5.90;;;6.80;99.90;;;;;;5020896;28;20191;-77
2022/03/02 09:55:35;;;;;;;9.60;6.33;;;7.00;76.10;;;;;;5020467;28;20242;-77
2022/03/02 09:58:03;;;;;;;9.37;6.40;;;7.10;99.90;;;;;;5023377;28;20187;-76
2022/03/02 10:00:29;;;;;;;8.87;5.53;;;7.00;99.90;;;;;;5048851;28;20287;-76
2022/03/02 10:02:58;;;;;;;9.67;6.03;;;7.00;99.90;;;;;;5048995;28;20181;-76
2022/03/02 10:05:26;;;;;;;7.60;5.67;;;7.10;99.40;;;;;;5042047;28;20179;-77
2022/03/02 10:08:10;;;;;;;9.90;6.17;;;7.20;48.40;;;;;;5036831;28;20259;-76
2022/03/02 10:10:41;;;;;;;7.93;5.73;;;7.40;11.70;;;;;;5029881;28;20228;-76
2022/03/02 10:13:09;;;;;;;6.53;5.20;;;7.50;1.00;;;;;;5056696;28;20185;-76
2022/03/02 10:15:35;;;;;;;7.73;5.10;;;7.60;1.00;;;;;;5056659;28;20195;-76
2022/03/02 10:18:02;;;;;;;6.73;5.03;;;7.70;1.00;;;;;;5048084;28;20180;-77
2022/03/02 10:20:30;;;;;;;6.87;4.50;;;7.70;1.00;;;;;;5023931;28;20540;-77
2022/03/02 10:23:22;;;;;;;5.50;4.47;;;7.80;1.00;;;;;;5024232;28;20183;-78
2022/03/02 10:26:00;;;;;;;8.27;4.30;;;7.80;1.00;;;;;;5023959;28;20231;-77
2022/03/02 10:28:28;;;;;;;6.23;4.57;;;7.90;1.00;;;;;;5041454;28;20594;-77
2022/03/02 10:31:03;;;;;;;7.13;4.70;;;7.90;1.00;;;;;;5041565;28;20208;-77
2022/03/02 10:33:36;;;;;;;7.57;4.60;;;8.00;1.00;;;;;;5041841;28;20549;-77
2022/03/02 10:36:08;;;;;;;8.43;4.27;;;8.10;1.00;;;;;;5022018;28;20262;-77
2022/03/02 10:38:43;;;;;;;7.27;4.60;;;8.20;1.00;;;;;;5040363;28;20165;-78
2022/03/02 10:41:09;;;;;;;9.43;4.80;;;8.20;1.00;;;;;;5023364;28;20196;-78
2022/03/02 10:43:48;;;;;;;8.20;4.70;;;8.30;1.00;;;;;;5023124;28;20262;-77
2022/03/02 10:46:19;;;;;;;6.20;4.40;;;8.30;1.00;;;;;;5023521;28;20164;-78
2022/03/02 10:48:50;;;;;;;5.43;4.30;;;8.30;1.00;;;;;;5041561;28;20157;-78
2022/03/02 10:51:17;;;;;;;5.63;4.33;;;8.40;1.00;;;;;;5043151;28;20187;-77
2022/03/02 10:53:50;;;;;;;6.30;5.00;;;8.50;1.00;;;;;;5040963;28;20175;-78
2022/03/02 10:56:18;;;;;;;5.93;4.50;;;8.60;1.00;;;;;;5022820;28;20196;-78
2022/03/02 10:58:48;;;;;;;32.77;5.73;;;8.70;1.00;;;;;;5040126;28;20689;-77
2022/03/02 11:01:16;;;;;;;5.47;4.40;;;8.70;1.00;;;;;;5040094;28;20256;-77
2022/03/02 11:03:42;;;;;;;5.77;4.30;;;8.80;1.00;;;;;;5039961;28;20164;-78
2022/03/02 11:06:07;;;;;;;5.20;4.13;;;8.80;1.00;;;;;;5021284;28;20198;-77
2022/03/02 11:08:36;;;;;;;6.67;4.43;;;8.80;1.00;;;;;;5040088;28;20730;-78
2022/03/02 11:11:05;;;;;;;7.63;4.60;;;8.90;1.00;;;;;;5039801;28;20215;-78
2022/03/02 11:13:31;;;;;;;7.37;4.73;;;9.00;1.00;;;;;;5021737;28;20168;-77
2022/03/02 11:15:59;;;;;;;9.70;4.93;;;9.10;1.00;;;;;;5037883;28;20172;-77
2022/03/02 11:18:31;;;;;;;7.70;4.73;;;9.10;1.00;;;;;;5037430;28;20168;-77
2022/03/02 11:20:59;;;;;;;10.13;5.10;;;9.20;1.00;;;;;;5019465;28;20744;-77
2022/03/02 11:23:24;;;;;;;7.37;4.90;;;9.20;1.00;;;;;;5020484;28;20183;-77
2022/03/02 11:25:53;;;;;;;5.43;4.37;;;9.30;1.00;;;;;;5019974;28;20179;-77
2022/03/02 11:28:22;;;;;;;10.23;4.77;;;9.30;1.00;;;;;;5038597;28;20553;-77
2022/03/02 11:30:54;;;;;;;6.03;4.53;;;9.40;1.00;;;;;;5037994;28;20266;-78
2022/03/02 11:33:27;;;;;;;9.13;5.10;;;9.40;1.00;;;;;;5037888;28;20170;-77
2022/03/02 11:36:02;;;;;;;7.00;4.83;;;9.50;1.00;;;;;;5036983;28;20503;-77
2022/03/02 11:38:30;;;;;;;7.97;4.77;;;9.60;1.00;;;;;;5020439;28;20172;-77
2022/03/02 11:40:57;;;;;;;7.63;4.53;;;9.60;1.00;;;;;;5019657;28;20670;-77
2022/03/02 11:43:28;;;;;;;7.83;4.73;;;9.60;1.00;;;;;;5019349;28;20176;-77
2022/03/02 11:45:58;;;;;;;9.03;4.43;;;9.60;1.00;;;;;;5036715;28;20185;-76
2022/03/02 11:48:26;;;;;;;6.00;4.90;;;9.70;1.00;;;;;;5036337;28;20174;-78
2022/03/02 11:51:13;;;;;;;9.13;5.13;;;9.80;1.00;;;;;;5036030;28;20254;-78
2022/03/02 11:53:54;;;;;;;6.60;5.03;;;9.80;1.00;;;;;;5036805;28;20176;-78
2022/03/02 11:56:23;;;;;;;5.97;4.63;;;9.80;1.00;;;;;;5020864;28;20210;-77
2022/03/02 11:58:59;;;;;;;7.80;4.37;;;9.80;1.00;;;;;;5037670;28;20552;-78
2022/03/02 12:01:26;;;;;;;9.77;4.57;;;9.80;1.00;;;;;;5038087;28;20188;-78
2022/03/02 12:04:00;;;;;;;6.33;5.20;;;9.90;1.00;;;;;;5037278;28;20207;-78
2022/03/02 12:06:27;;;;;;;6.87;4.33;;;10.00;1.00;;;;;;5037233;28;20187;-77
2022/03/02 12:08:56;;;;;;;6.03;4.70;;;10.00;1.00;;;;;;5037977;28;20196;-78
2022/03/02 12:11:34;;;;;;;7.53;4.50;;;9.90;1.00;;;;;;5018994;28;20215;-78
2022/03/02 12:14:08;;;;;;;8.23;4.63;;;10.00;1.00;;;;;;5037191;28;20200;-76
2022/03/02 12:16:36;;;;;;;4.57;4.13;;;10.10;1.00;;;;;;5019552;28;20185;-78
2022/03/02 12:19:02;;;;;;;6.10;4.20;;;10.10;1.00;;;;;;5036942;28;20172;-78
2022/03/02 12:21:28;;;;;;;10.03;4.90;;;10.20;1.00;;;;;;5037089;28;20267;-77
2022/03/02 12:23:54;;;;;;;5.00;3.60;;;10.20;1.00;;;;;;5019010;28;20211;-78
2022/03/02 12:26:19;;;;;;;7.63;4.73;;;10.30;1.00;;;;;;5037203;28;20172;-78
2022/03/02 12:28:56;;;;;;;7.70;4.30;;;10.30;1.00;;;;;;5037489;28;20172;-78
2022/03/02 12:31:32;;;;;;;8.03;4.80;;;10.30;1.00;;;;;;5037457;28;20267;-78
2022/03/02 12:34:11;;;;;;;8.63;3.73;;;10.30;1.00;;;;;;5039873;28;20669;-78
2022/03/02 12:36:37;;;;;;;6.87;3.93;;;10.30;1.00;;;;;;5038130;28;20302;-77
2022/03/02 12:39:04;;;;;;;7.03;4.40;;;10.40;1.00;;;;;;5038443;28;20558;-78
2022/03/02 12:41:30;;;;;;;6.23;4.00;;;10.30;1.00;;;;;;5037164;28;20219;-78
2022/03/02 12:43:57;;;;;;;8.03;4.27;;;10.30;1.00;;;;;;5037370;28;20180;-77
2022/03/02 12:46:22;;;;;;;7.27;4.63;;;10.40;1.00;;;;;;5035890;28;20176;-77
2022/03/02 12:48:50;;;;;;;6.60;4.60;;;10.40;1.00;;;;;;5035234;28;20235;-77
2022/03/02 12:51:17;;;;;;;8.80;4.43;;;10.40;1.00;;;;;;5036704;28;20192;-77
2022/03/02 12:53:43;;;;;;;6.17;4.53;;;10.50;1.00;;;;;;5036112;28;20681;-78
2022/03/02 12:56:09;;;;;;;5.60;4.70;;;10.50;1.00;;;;;;5035941;28;20539;-77
2022/03/02 12:58:37;;;;;;;8.03;4.87;;;10.60;1.00;;;;;;5037220;28;20184;-77
2022/03/02 13:01:02;;;;;;;11.30;5.17;;;10.60;1.00;;;;;;5040304;28;20215;-78